Portada
METAR-TAF:

METAR-TAF

Aeroports :

Karachi, Uzbekistan

latitud: 38-48-12N, longitud: 065-46-24E, altitud: 375 m

Observació

L'informe es va fer fa 39 minuts, a les 05:30 UTC
Vent 2 kt amb direcció variable
Temperatura 4°C
Humitat 70%
Pressió 1021 hPa
Visibilitat 10 km o més
sense núvols per sota de 1500 mi sense presència de cumulonimbus.

METAR: UTSK 200530Z VRB02KT CAVOK 04/M01 Q1021 R16/CLRD70

Hora: 11:09 (06:09 UTC)

Pronòstic

L'informe es va fer fa 3 hores i 19 minuts, a les 02:50 UTC
Pronòstic vàlid del 20 a les 04 UTC al 20 a les 13 UTC
Vent 6 kt del Est/Nord-Est
Visibilitat 10 km o més
sense núvols per sota de 1500 mi sense presència de cumulonimbus.
Temporalment
l' 20 a les 04 UTC al 20 a les 06 UTC
Visibilitat: 5000 m
boirina

TAF: UTSK 200250Z 2004/2013 07006KT CAVOK TEMPO 2004/2006 5000 BR

Observacions i pronòstics meteorològics de més de 4000 aeroports (METAR i TAF).

Les estacions disponibles són els punts grocs i vermells al mapa.

Posi el ratolí al punt desitjat per veure el nom de l'estació.

Feu clic per veure les observacions i els pronòstics meteorològics.

Per canviar el mapa: feu clic els botons verds amb una creu de color negre per apropar; al botó verd amb un guió per allunyar la imatge; o en les fletxes verdes per a mapes adjacents.


METAR-TAF: